createdAt,value
2023-05-01T00:16:05.570Z,23
2023-05-01T00:31:05.123Z,22
2023-05-01T00:46:05.308Z,24
2023-05-01T01:01:05.811Z,25
2023-05-01T01:16:05.064Z,28
2023-05-01T01:31:05.254Z,26
2023-05-01T01:46:05.827Z,26
2023-05-01T02:01:05.093Z,23
2023-05-01T02:16:05.449Z,24
2023-05-01T02:31:05.820Z,29
2023-05-01T02:46:05.609Z,40
2023-05-01T03:01:06.179Z,47
2023-05-01T03:16:05.637Z,49
2023-05-01T03:31:05.132Z,46
2023-05-01T03:46:05.326Z,42
2023-05-01T04:01:05.612Z,44
2023-05-01T04:16:05.311Z,45
2023-05-01T04:31:05.876Z,45
2023-05-01T04:46:04.974Z,43
2023-05-01T05:01:05.263Z,40
2023-05-01T05:16:05.750Z,35
2023-05-01T05:31:04.956Z,22
2023-05-01T05:46:05.408Z,20
2023-05-01T06:01:05.565Z,23
2023-05-01T06:16:05.021Z,20
2023-05-01T06:31:05.219Z,11
2023-05-01T06:46:05.280Z,11
2023-05-01T07:01:05.914Z,10
2023-05-01T07:16:05.506Z,8
2023-05-01T07:31:04.853Z,8
2023-05-01T07:46:05.259Z,7
2023-05-01T08:01:05.707Z,7
2023-05-01T08:16:05.187Z,8
2023-05-01T08:31:05.420Z,10
2023-05-01T08:46:06.109Z,6
2023-05-01T09:01:05.971Z,7
2023-05-01T09:16:05.604Z,6
2023-05-01T09:31:05.644Z,6
2023-05-01T09:46:05.842Z,8
2023-05-01T10:01:05.291Z,7
2023-05-01T10:31:05.729Z,6
2023-05-01T10:46:05.343Z,5
2023-05-01T11:01:05.343Z,5
2023-05-01T11:16:05.741Z,7
2023-05-01T11:31:05.807Z,6
2023-05-01T11:46:04.979Z,8
2023-05-01T12:01:05.016Z,3
2023-05-01T12:16:04.755Z,4
2023-05-01T12:31:05.980Z,2
2023-05-01T12:46:05.260Z,3
2023-05-01T13:01:04.648Z,3
2023-05-01T13:16:05.728Z,7
2023-05-01T13:31:05.209Z,5
2023-05-01T14:00:23.932Z,4
2023-05-01T14:15:24.543Z,2
2023-05-01T14:30:24.337Z,5
2023-05-01T14:45:24.445Z,2
2023-05-01T15:00:24.534Z,3
2023-05-01T15:15:24.030Z,3
2023-05-01T15:30:24.352Z,3
2023-05-01T15:45:24.917Z,4
2023-05-01T16:00:24.533Z,5
2023-05-01T16:15:24.535Z,4
2023-05-01T16:30:24.766Z,4
2023-05-01T16:45:24.084Z,4
2023-05-01T17:00:24.443Z,5
2023-05-01T17:15:24.747Z,5
2023-05-01T17:30:24.533Z,6
2023-05-01T17:45:24.290Z,5
2023-05-01T18:00:24.216Z,5
2023-05-01T18:15:24.724Z,6
2023-05-01T18:30:24.251Z,8
2023-05-01T18:45:24.648Z,9
2023-05-01T19:00:23.870Z,7
2023-05-01T19:15:24.402Z,7
2023-05-01T19:30:23.924Z,10
2023-05-01T19:45:24.647Z,13
2023-05-01T20:00:24.654Z,12
2023-05-01T20:15:24.179Z,67
2023-05-01T20:30:24.546Z,9
2023-05-01T20:45:24.374Z,8
2023-05-01T21:00:24.605Z,9
2023-05-01T21:15:23.936Z,9
2023-05-01T21:30:24.217Z,13
2023-05-01T21:45:26.907Z,8
2023-05-01T22:00:24.868Z,12
2023-05-01T22:15:24.281Z,9
2023-05-01T22:30:24.780Z,10
2023-05-01T22:45:24.303Z,9
2023-05-01T23:00:24.892Z,10
2023-05-01T23:15:24.980Z,8
2023-05-01T23:30:24.628Z,9
2023-05-01T23:45:24.854Z,13
